Time;durP1;ratioP1;P1;durP2;ratioP2;P2;SDS_P1;SDS_P2;PMS_P1;PMS_P2;Temp;Humidity;BMP_temperature;BMP_pressure;BME280_temperature;BME280_humidity;BME280_pressure;Samples;Min_cycle;Max_cycle;Signal;HPM_P1;HPM_P2
2023/02/24 00:01:36;;;;;;;;;;;;;;;9.09;77.55;97519.09;5094201;28;19924;-53
2023/02/24 00:04:06;;;;;;;;;;;;;;;9.12;77.38;97513.09;5108216;28;19924;-54
2023/02/24 00:06:58;;;;;;;;;;;;;;;9.10;77.72;97518.00;5098704;28;19950;-53
2023/02/24 00:09:29;;;;;;;;;;;;;;;9.08;77.39;97514.00;5109614;28;19969;-54
2023/02/24 00:11:58;;;;;;;;;;;;;;;9.05;77.20;97520.03;5099047;28;19924;-54
2023/02/24 00:14:28;;;;;;;;;;;;;;;9.03;77.41;97511.44;5101542;28;20391;-53
2023/02/24 00:16:57;;;;;;;;;;;;;;;9.07;77.05;97513.22;5092774;28;19931;-54
2023/02/24 00:19:26;;;;;;;;;;;;;;;9.05;77.17;97503.78;5110198;28;19963;-53
2023/02/24 00:21:58;;;;;;;;;;;;;;;8.97;77.37;97507.25;5099485;28;19942;-54
2023/02/24 00:24:28;;;;;;;;;;;;;;;8.98;77.54;97503.44;5079018;28;19939;-53
2023/02/24 00:26:58;;;;;;;;;;;;;;;8.92;77.56;97505.47;5091206;28;20056;-55
2023/02/24 00:29:26;;;;;;;;;;;;;;;8.88;77.93;97504.50;5078603;28;19947;-53
2023/02/24 00:31:57;;;;;;;;;;;;;;;8.91;77.80;97496.56;5078372;28;19958;-53
2023/02/24 00:34:26;;;;;;;;;;;;;;;8.80;78.28;97502.53;5090563;28;19939;-53
2023/02/24 00:36:56;;;;;;;;;;;;;;;8.82;78.37;97492.97;5079886;28;19942;-54
2023/02/24 00:39:29;;;;;;;;;;;;;;;8.79;78.79;97488.19;5078604;28;19946;-53
2023/02/24 00:42:22;;;;;;;;;;;;;;;8.82;79.26;97484.84;5082935;28;20356;-54
2023/02/24 00:44:53;;;;;;;;;;;;;;;8.76;79.58;97477.97;5078774;28;19962;-53
2023/02/24 00:47:22;;;;;;;;;;;;;;;8.65;80.25;97476.63;5078420;28;19967;-55
2023/02/24 00:49:50;;;;;;;;;;;;;;;8.72;80.03;97474.28;5071119;28;19964;-55
2023/02/24 00:52:19;;;;;;;;;;;;;;;8.76;79.81;97467.16;5075210;28;19938;-54
2023/02/24 00:54:47;;;;;;;;;;;;;;;8.75;80.10;97465.56;5064131;28;19935;-53
2023/02/24 00:57:17;;;;;;;;;;;;;;;8.74;79.96;97460.44;5084183;28;19939;-54
2023/02/24 00:59:48;;;;;;;;;;;;;;;8.74;79.91;97455.84;5087406;28;20403;-54
2023/02/24 01:02:45;;;;;;;;;;;;;;;8.75;80.13;97449.31;5085089;28;19962;-54
2023/02/24 01:05:13;;;;;;;;;;;;;;;8.77;79.82;97449.78;5082122;28;19938;-54
2023/02/24 01:07:41;;;;;;;;;;;;;;;8.71;80.17;97453.72;5086043;28;19958;-54
2023/02/24 01:10:11;;;;;;;;;;;;;;;8.68;80.51;97448.91;5071307;28;19935;-54
2023/02/24 01:12:48;;;;;;;;;;;;;;;8.67;80.58;97450.03;5066740;28;19931;-55
2023/02/24 01:15:18;;;;;;;;;;;;;;;8.72;79.29;97447.19;5071384;28;19935;-54
2023/02/24 01:17:46;;;;;;;;;;;;;;;8.69;79.35;97445.13;5101069;28;19939;-56
2023/02/24 01:20:16;;;;;;;;;;;;;;;8.69;79.51;97441.63;5091944;28;19942;-54
2023/02/24 01:22:45;;;;;;;;;;;;;;;8.63;79.49;97435.53;5110590;28;19992;-53
2023/02/24 01:25:15;;;;;;;;;;;;;;;8.74;79.45;97434.16;5101023;28;19924;-54
2023/02/24 01:27:43;;;;;;;;;;;;;;;8.64;79.29;97435.22;5107504;28;20410;-54
2023/02/24 01:30:14;;;;;;;;;;;;;;;8.65;79.36;97430.59;5100216;28;19950;-54
2023/02/24 01:32:45;;;;;;;;;;;;;;;8.70;79.74;97437.81;5083273;28;19959;-54
2023/02/24 01:35:14;;;;;;;;;;;;;;;8.66;79.43;97426.78;5079763;28;19962;-53
2023/02/24 01:37:42;;;;;;;;;;;;;;;8.69;79.64;97426.16;5096969;28;19946;-54
2023/02/24 01:40:17;;;;;;;;;;;;;;;8.75;79.46;97426.84;5077040;28;19934;-53
2023/02/24 01:42:48;;;;;;;;;;;;;;;8.76;79.44;97426.50;5075524;28;19971;-54
2023/02/24 01:45:42;;;;;;;;;;;;;;;8.78;79.61;97431.63;5075415;28;19993;-53
2023/02/24 01:48:12;;;;;;;;;;;;;;;8.84;79.50;97427.66;5087713;28;20316;-53
2023/02/24 01:50:39;;;;;;;;;;;;;;;8.77;80.21;97433.53;5092307;28;19934;-54
2023/02/24 01:53:09;;;;;;;;;;;;;;;8.77;80.10;97430.81;5085244;28;20349;-54
2023/02/24 01:55:41;;;;;;;;;;;;;;;8.76;80.11;97426.50;5090104;28;19939;-53
2023/02/24 01:58:15;;;;;;;;;;;;;;;8.80;80.08;97416.66;5076916;28;19942;-53
2023/02/24 02:00:46;;;;;;;;;;;;;;;8.63;80.92;97411.97;5077264;28;19924;-54
2023/02/24 02:03:25;;;;;;;;;;;;;;;8.69;80.96;97411.84;5090304;28;19973;-54
2023/02/24 02:05:54;;;;;;;;;;;;;;;8.58;81.20;97411.31;5082932;28;19932;-54
2023/02/24 02:08:24;;;;;;;;;;;;;;;8.56;81.33;97408.09;5073549;28;19982;-53
2023/02/24 02:10:57;;;;;;;;;;;;;;;8.50;81.65;97409.31;5072708;28;19932;-53
2023/02/24 02:13:26;;;;;;;;;;;;;;;8.62;81.25;97398.72;5091990;28;19939;-53
2023/02/24 02:16:02;;;;;;;;;;;;;;;8.57;81.13;97393.44;5060023;28;19979;-54
2023/02/24 02:18:58;;;;;;;;;;;;;;;8.57;81.25;97393.44;5089253;28;20133;-53
2023/02/24 02:21:37;;;;;;;;;;;;;;;8.54;80.94;97397.56;5068917;28;19924;-54
2023/02/24 02:24:23;;;;;;;;;;;;;;;8.56;81.42;97397.25;5081659;28;19928;-53
2023/02/24 02:26:59;;;;;;;;;;;;;;;8.48;81.48;97387.19;5071157;28;19948;-54
2023/02/24 02:29:37;;;;;;;;;;;;;;;8.48;81.47;97381.78;5082445;28;19924;-53
2023/02/24 02:32:24;;;;;;;;;;;;;;;8.44;81.76;97380.78;5074918;28;19954;-53
2023/02/24 02:34:56;;;;;;;;;;;;;;;8.40;81.92;97378.69;5097326;28;19931;-54
2023/02/24 02:37:51;;;;;;;;;;;;;;;8.37;82.11;97376.63;5108267;28;20330;-53
2023/02/24 02:40:22;;;;;;;;;;;;;;;8.32;82.33;97376.72;5105614;28;19931;-54
2023/02/24 02:42:52;;;;;;;;;;;;;;;8.43;82.10;97382.69;5097458;28;19996;-55
2023/02/24 02:45:22;;;;;;;;;;;;;;;8.46;81.85;97373.16;5077086;28;20286;-54
2023/02/24 02:47:52;;;;;;;;;;;;;;;8.35;82.28;97369.88;5079636;28;19993;-53
2023/02/24 02:50:25;;;;;;;;;;;;;;;8.40;82.13;97367.06;5084805;28;20015;-53
2023/02/24 02:52:55;;;;;;;;;;;;;;;8.31;82.30;97366.19;5101033;28;19932;-53
2023/02/24 02:55:49;;;;;;;;;;;;;;;8.40;82.14;97367.88;5073934;28;19935;-53
2023/02/24 02:58:19;;;;;;;;;;;;;;;8.40;82.28;97376.00;5082488;28;20274;-53
2023/02/24 03:00:57;;;;;;;;;;;;;;;8.38;82.47;97380.13;5073165;28;19932;-54
2023/02/24 03:03:26;;;;;;;;;;;;;;;8.31;82.05;97368.88;5082763;28;19924;-54
2023/02/24 03:05:57;;;;;;;;;;;;;;;8.27;82.23;97360.59;5088235;28;19924;-59
2023/02/24 03:08:26;;;;;;;;;;;;;;;8.31;82.22;97366.19;5091474;28;19924;-53
2023/02/24 03:10:54;;;;;;;;;;;;;;;8.33;82.00;97364.78;5085294;28;19928;-55
2023/02/24 03:13:24;;;;;;;;;;;;;;;8.36;81.21;97357.97;5087362;28;19935;-54
2023/02/24 03:15:52;;;;;;;;;;;;;;;8.32;81.44;97355.06;5094129;28;20318;-54
2023/02/24 03:18:28;;;;;;;;;;;;;;;8.28;81.37;97350.59;5091171;28;19924;-55
2023/02/24 03:20:59;;;;;;;;;;;;;;;8.23;81.34;97354.22;5078229;28;19925;-56
2023/02/24 03:23:30;;;;;;;;;;;;;;;8.25;81.48;97345.78;5103216;28;19928;-54
2023/02/24 03:25:59;;;;;;;;;;;;;;;8.25;81.64;97346.56;5087627;28;20285;-54
2023/02/24 03:28:32;;;;;;;;;;;;;;;8.26;81.41;97353.59;5090067;28;19924;-55
2023/02/24 03:31:04;;;;;;;;;;;;;;;8.25;81.37;97345.78;5097008;28;19932;-54
2023/02/24 03:33:35;;;;;;;;;;;;;;;8.30;81.07;97342.94;5083489;28;19928;-54
2023/02/24 03:36:04;;;;;;;;;;;;;;;8.33;80.42;97351.25;5088727;28;19931;-54
2023/02/24 03:38:37;;;;;;;;;;;;;;;8.28;80.58;97348.66;5084795;28;20342;-55
2023/02/24 03:41:09;;;;;;;;;;;;;;;8.22;80.57;97336.38;5104226;28;20431;-54
2023/02/24 03:43:40;;;;;;;;;;;;;;;8.19;80.89;97331.56;5090805;28;19960;-54
2023/02/24 03:46:33;;;;;;;;;;;;;;;8.11;81.03;97335.03;5083823;28;20331;-58
2023/02/24 03:49:03;;;;;;;;;;;;;;;8.15;80.79;97338.75;5094009;28;19968;-66
2023/02/24 03:51:35;;;;;;;;;;;;;;;8.11;81.13;97343.16;5085927;28;19924;-54
2023/02/24 03:54:07;;;;;;;;;;;;;;;8.07;81.29;97350.28;5080386;28;20403;-57
2023/02/24 03:56:45;;;;;;;;;;;;;;;8.08;81.09;97343.75;5089265;28;19939;-55
2023/02/24 03:59:22;;;;;;;;;;;;;;;8.16;80.63;97345.75;5097121;28;19924;-55
2023/02/24 04:01:56;;;;;;;;;;;;;;;8.12;81.17;97342.06;5078010;28;19929;-54
2023/02/24 04:04:31;;;;;;;;;;;;;;;8.15;80.93;97336.03;5084081;28;19978;-54
2023/02/24 04:07:13;;;;;;;;;;;;;;;8.13;80.49;97343.63;5077048;28;19935;-54
2023/02/24 04:10:08;;;;;;;;;;;;;;;8.17;80.40;97338.41;5088824;28;19961;-53
2023/02/24 04:12:38;;;;;;;;;;;;;;;8.12;80.52;97318.50;5079214;28;19988;-55
2023/02/24 04:18:04;;;;;;;;;;;;;;;8.10;80.73;97328.03;5071170;28;19954;-54
2023/02/24 04:20:38;;;;;;;;;;;;;;;8.13;80.59;97320.09;5062119;28;19954;-54
2023/02/24 04:23:33;;;;;;;;;;;;;;;8.01;80.82;97319.88;5086678;28;20307;-53
2023/02/24 04:26:01;;;;;;;;;;;;;;;8.02;80.91;97317.94;5058025;28;19985;-54
2023/02/24 04:28:29;;;;;;;;;;;;;;;7.96;81.03;97324.59;5067927;28;19939;-53
2023/02/24 04:31:04;;;;;;;;;;;;;;;7.95;81.36;97318.41;5065275;28;20349;-54
2023/02/24 04:33:34;;;;;;;;;;;;;;;7.90;81.55;97328.53;5086073;28;20342;-53
2023/02/24 04:36:04;;;;;;;;;;;;;;;7.95;81.49;97320.31;5089901;28;19966;-54
2023/02/24 04:38:37;;;;;;;;;;;;;;;7.97;81.59;97324.28;5084681;28;19945;-53
2023/02/24 04:41:07;;;;;;;;;;;;;;;7.97;81.31;97313.47;5078667;28;19946;-54
2023/02/24 04:43:35;;;;;;;;;;;;;;;7.87;81.86;97314.50;5087236;28;19939;-53
2023/02/24 04:46:06;;;;;;;;;;;;;;;7.98;81.30;97315.06;5069235;28;19958;-54
2023/02/24 04:49:00;;;;;;;;;;;;;;;7.94;80.55;97314.09;5075888;28;20410;-53
2023/02/24 04:51:31;;;;;;;;;;;;;;;7.95;80.88;97310.28;5083520;28;19924;-53
2023/02/24 04:54:02;;;;;;;;;;;;;;;7.95;80.47;97312.19;5088058;28;19961;-54
2023/02/24 04:56:30;;;;;;;;;;;;;;;7.98;80.47;97311.56;5082459;28;19935;-53
2023/02/24 04:58:58;;;;;;;;;;;;;;;7.92;80.54;97300.06;5090746;28;19942;-55
2023/02/24 05:01:26;;;;;;;;;;;;;;;7.94;80.30;97297.06;5079906;28;19954;-54
2023/02/24 05:03:54;;;;;;;;;;;;;;;7.96;80.18;97297.56;5088697;28;19961;-53
2023/02/24 05:06:23;;;;;;;;;;;;;;;7.93;80.18;97287.34;5089371;28;19945;-53
2023/02/24 05:08:51;;;;;;;;;;;;;;;7.88;79.65;97289.09;5091272;28;19938;-53
2023/02/24 05:11:21;;;;;;;;;;;;;;;7.86;80.12;97285.88;5089862;28;19942;-54
2023/02/24 05:13:50;;;;;;;;;;;;;;;7.85;80.15;97281.56;5088116;28;19939;-54
2023/02/24 05:21:56;;;;;;;;;;;;;;;7.86;80.21;97279.66;5082624;28;19939;-54
2023/02/24 05:24:25;;;;;;;;;;;;;;;7.91;79.58;97276.03;5088942;28;19942;-54
2023/02/24 05:26:57;;;;;;;;;;;;;;;7.94;79.88;97275.44;5086506;28;19942;-54
2023/02/24 05:29:27;;;;;;;;;;;;;;;7.86;79.88;97271.56;5090057;28;20398;-54
2023/02/24 05:31:58;;;;;;;;;;;;;;;7.78;80.30;97264.22;5083631;28;20323;-53
2023/02/24 05:34:26;;;;;;;;;;;;;;;7.79;80.44;97260.38;5092832;28;19992;-54
2023/02/24 05:36:55;;;;;;;;;;;;;;;7.78;80.56;97262.28;5102194;28;19958;-54
2023/02/24 05:39:25;;;;;;;;;;;;;;;7.90;79.93;97260.94;5089016;28;20462;-54
2023/02/24 05:41:57;;;;;;;;;;;;;;;7.95;80.21;97258.09;5088927;28;19938;-54
2023/02/24 05:44:26;;;;;;;;;;;;;;;7.83;80.14;97256.75;5084180;28;20491;-54
2023/02/24 05:46:57;;;;;;;;;;;;;;;7.91;79.97;97252.50;5074392;28;19973;-54
2023/02/24 05:49:28;;;;;;;;;;;;;;;7.91;79.72;97254.41;5089152;28;19928;-54
2023/02/24 05:51:58;;;;;;;;;;;;;;;8.03;79.46;97238.38;5078962;28;19961;-54
2023/02/24 05:54:28;;;;;;;;;;;;;;;7.97;79.40;97236.94;5096993;28;20257;-54
2023/02/24 05:56:58;;;;;;;;;;;;;;;8.03;78.70;97241.88;5081314;28;19942;-53
2023/02/24 05:59:31;;;;;;;;;;;;;;;7.96;79.26;97240.75;5084741;28;19959;-54
2023/02/24 06:02:01;;;;;;;;;;;;;;;7.99;79.12;97240.13;5070159;28;19925;-54
2023/02/24 06:04:39;;;;;;;;;;;;;;;7.97;79.16;97240.44;5091963;28;19924;-53
2023/02/24 06:07:07;;;;;;;;;;;;;;;7.98;79.14;97233.13;5080419;28;19951;-54
2023/02/24 06:09:38;;;;;;;;;;;;;;;7.98;78.88;97233.13;5087294;28;21659;-54
2023/02/24 06:12:08;;;;;;;;;;;;;;;7.97;78.76;97231.53;5084033;28;19963;-54
2023/02/24 06:14:36;;;;;;;;;;;;;;;8.01;78.76;97222.47;5089551;28;20032;-53
2023/02/24 06:17:04;;;;;;;;;;;;;;;7.99;78.62;97226.59;5080230;28;19932;-54
2023/02/24 06:19:34;;;;;;;;;;;;;;;7.97;78.31;97223.41;5078628;28;20327;-54
2023/02/24 06:22:05;;;;;;;;;;;;;;;8.02;78.34;97224.06;5084863;28;19935;-54
2023/02/24 06:24:33;;;;;;;;;;;;;;;7.96;78.46;97224.53;5079786;28;19930;-54
2023/02/24 06:27:04;;;;;;;;;;;;;;;7.90;78.86;97220.38;5088299;28;20312;-54
2023/02/24 06:29:59;;;;;;;;;;;;;;;8.05;78.00;97217.25;5081301;28;19965;-56
2023/02/24 06:32:28;;;;;;;;;;;;;;;8.00;78.65;97220.09;5083167;28;19955;-54
2023/02/24 06:34:58;;;;;;;;;;;;;;;7.97;78.64;97218.00;5087758;28;19974;-54
2023/02/24 06:37:49;;;;;;;;;;;;;;;8.10;78.03;97222.53;5080258;28;20422;-54
2023/02/24 06:40:18;;;;;;;;;;;;;;;8.16;77.53;97224.00;5079413;28;19961;-54
2023/02/24 06:42:47;;;;;;;;;;;;;;;8.04;77.79;97224.56;5089809;28;19931;-54
2023/02/24 06:45:18;;;;;;;;;;;;;;;8.09;77.83;97220.91;5081779;28;19943;-54
2023/02/24 06:47:47;;;;;;;;;;;;;;;8.15;77.62;97227.81;5103745;28;19950;-55
2023/02/24 06:50:18;;;;;;;;;;;;;;;8.13;77.89;97213.78;5108659;28;19999;-54
2023/02/24 06:52:46;;;;;;;;;;;;;;;8.08;78.06;97219.31;5100952;28;19987;-54
2023/02/24 06:55:24;;;;;;;;;;;;;;;8.12;77.70;97214.88;5108307;28;19934;-54
2023/02/24 06:58:17;;;;;;;;;;;;;;;8.11;77.44;97205.19;5106549;28;20410;-55
2023/02/24 07:00:55;;;;;;;;;;;;;;;8.16;77.61;97212.38;5092478;28;19962;-55
2023/02/24 07:03:37;;;;;;;;;;;;;;;8.00;77.60;97217.38;5090331;28;19992;-54
2023/02/24 07:06:19;;;;;;;;;;;;;;;8.20;77.09;97219.53;5091287;28;19934;-53
2023/02/24 07:08:47;;;;;;;;;;;;;;;8.15;76.84;97211.56;5089015;28;19966;-54
2023/02/24 07:11:17;;;;;;;;;;;;;;;8.14;77.19;97212.66;5088851;28;20335;-54
2023/02/24 07:13:46;;;;;;;;;;;;;;;8.18;77.24;97212.84;5088779;28;20308;-56
2023/02/24 07:16:41;;;;;;;;;;;;;;;8.25;76.67;97219.38;5089485;28;19928;-54
2023/02/24 07:19:12;;;;;;;;;;;;;;;8.31;77.05;97220.88;5100146;28;20490;-54
2023/02/24 07:21:42;;;;;;;;;;;;;;;8.42;76.29;97221.41;5106434;28;20512;-54
2023/02/24 07:24:12;;;;;;;;;;;;;;;8.32;76.24;97208.94;5108912;28;20013;-54
2023/02/24 07:26:40;;;;;;;;;;;;;;;8.25;77.26;97213.97;5110029;28;20384;-54
2023/02/24 07:29:10;;;;;;;;;;;;;;;8.23;77.32;97213.50;5087749;28;19981;-54
2023/02/24 07:31:39;;;;;;;;;;;;;;;8.32;76.30;97206.22;5088897;28;19954;-56
2023/02/24 07:34:07;;;;;;;;;;;;;;;8.35;76.38;97208.28;5085300;28;20447;-54
2023/02/24 07:36:47;;;;;;;;;;;;;;;8.33;76.61;97207.81;5085446;28;19928;-54
2023/02/24 07:39:16;;;;;;;;;;;;;;;8.28;77.00;97197.13;5083264;28;20005;-54
2023/02/24 07:41:48;;;;;;;;;;;;;;;8.33;76.67;97199.69;5074557;28;20384;-54
2023/02/24 07:44:21;;;;;;;;;;;;;;;8.39;76.52;97194.97;5085132;28;19988;-54
2023/02/24 07:46:50;;;;;;;;;;;;;;;8.34;76.98;97190.44;5079115;28;20360;-54
2023/02/24 07:49:19;;;;;;;;;;;;;;;8.30;77.20;97189.47;5086678;28;20364;-53
2023/02/24 07:51:51;;;;;;;;;;;;;;;8.31;76.95;97182.97;5085634;28;20285;-54
2023/02/24 07:54:19;;;;;;;;;;;;;;;8.30;77.02;97175.16;5089481;28;19961;-54
2023/02/24 07:56:55;;;;;;;;;;;;;;;8.34;77.03;97187.75;5085369;28;19934;-54
2023/02/24 07:59:24;;;;;;;;;;;;;;;8.26;77.07;97176.91;5086795;28;21175;-54
2023/02/24 08:01:54;;;;;;;;;;;;;;;8.28;76.87;97177.38;5078662;28;19932;-53
2023/02/24 08:04:24;;;;;;;;;;;;;;;8.44;76.07;97177.78;5078443;28;19942;-54
2023/02/24 08:07:01;;;;;;;;;;;;;;;8.32;76.67;97178.34;5081939;28;19962;-53
2023/02/24 08:10:12;;;;;;;;;;;;;;;8.37;76.00;97170.91;5088853;28;20064;-54
2023/02/24 08:13:10;;;;;;;;;;;;;;;8.22;76.21;97168.63;5086189;28;20023;-54
2023/02/24 08:15:44;;;;;;;;;;;;;;;8.45;75.70;97171.25;5077209;28;20440;-54
2023/02/24 08:18:13;;;;;;;;;;;;;;;8.47;75.26;97174.41;5079775;28;19955;-54
2023/02/24 08:23:43;;;;;;;;;;;;;;;8.46;75.51;97173.63;5089042;28;19946;-54
2023/02/24 08:26:11;;;;;;;;;;;;;;;8.45;75.44;97171.25;5076558;28;19942;-53
2023/02/24 08:28:40;;;;;;;;;;;;;;;8.55;75.24;97176.38;5080341;28;19966;-53
2023/02/24 08:31:11;;;;;;;;;;;;;;;8.47;75.84;97163.59;5076548;28;19954;-53
2023/02/24 08:33:39;;;;;;;;;;;;;;;8.50;75.19;97171.09;5078219;28;20012;-54
2023/02/24 08:36:07;;;;;;;;;;;;;;;8.42;74.79;97161.06;5081147;28;20323;-54
2023/02/24 08:38:40;;;;;;;;;;;;;;;8.37;74.97;97160.09;5089146;28;20258;-54
2023/02/24 08:41:16;;;;;;;;;;;;;;;8.33;75.51;97158.28;5076601;28;19930;-53
2023/02/24 08:43:46;;;;;;;;;;;;;;;8.47;75.74;97152.78;5089406;28;19924;-54
2023/02/24 08:46:39;;;;;;;;;;;;;;;8.48;75.02;97146.25;5074691;28;19961;-54
2023/02/24 08:49:09;;;;;;;;;;;;;;;8.42;75.19;97147.53;5088944;28;19924;-53
2023/02/24 08:51:42;;;;;;;;;;;;;;;8.46;75.31;97149.25;5089208;28;19958;-54
2023/02/24 08:54:15;;;;;;;;;;;;;;;8.54;75.29;97143.09;5084282;28;19939;-53
2023/02/24 08:56:47;;;;;;;;;;;;;;;8.54;75.27;97147.69;5082774;28;19924;-53
2023/02/24 08:59:36;;;;;;;;;;;;;;;8.54;74.60;97139.59;5091429;28;20153;-54
2023/02/24 09:02:18;;;;;;;;;;;;;;;8.50;74.83;97141.31;5072478;28;19951;-54
2023/02/24 09:04:46;;;;;;;;;;;;;;;8.42;74.83;97134.78;5070443;28;19962;-53
2023/02/24 09:07:15;;;;;;;;;;;;;;;8.45;75.12;97136.06;5080356;28;19954;-57
2023/02/24 09:09:44;;;;;;;;;;;;;;;8.40;74.79;97134.28;5085909;28;19983;-53
2023/02/24 09:12:20;;;;;;;;;;;;;;;8.47;74.97;97144.66;5086237;28;19950;-54
2023/02/24 09:15:19;;;;;;;;;;;;;;;8.54;74.26;97131.47;5073525;28;19945;-53
2023/02/24 09:18:00;;;;;;;;;;;;;;;8.53;74.36;97130.66;5072821;28;19955;-54
2023/02/24 09:23:45;;;;;;;;;;;;;;;8.62;73.60;97120.63;5078751;28;20350;-53
2023/02/24 09:26:15;;;;;;;;;;;;;;;8.56;73.05;97126.50;5080182;28;19935;-54
2023/02/24 09:28:53;;;;;;;;;;;;;;;8.67;73.17;97119.66;5078208;28;20230;-61
2023/02/24 09:31:22;;;;;;;;;;;;;;;8.73;72.45;97121.09;5071914;28;19954;-54
2023/02/24 09:33:51;;;;;;;;;;;;;;;8.78;72.57;97112.81;5080052;28;20454;-54
2023/02/24 09:36:28;;;;;;;;;;;;;;;8.72;72.82;97122.22;5079653;28;19986;-53
2023/02/24 09:39:09;;;;;;;;;;;;;;;8.70;72.76;97113.63;5085456;28;20395;-54
2023/02/24 09:41:56;;;;;;;;;;;;;;;8.75;72.40;97107.25;5088132;28;19969;-53
2023/02/24 09:44:26;;;;;;;;;;;;;;;8.69;72.10;97101.22;5090341;28;20285;-54
2023/02/24 09:46:57;;;;;;;;;;;;;;;8.72;72.36;97097.06;5079548;28;19950;-54
2023/02/24 09:49:37;;;;;;;;;;;;;;;8.89;72.17;97097.03;5088234;28;19939;-54
2023/02/24 09:52:15;;;;;;;;;;;;;;;8.87;72.06;97102.00;5085054;28;19950;-57
2023/02/24 09:55:11;;;;;;;;;;;;;;;8.99;71.50;97087.78;5101528;28;20441;-54
2023/02/24 09:57:36;;;;;;;;;;;;;;;9.12;71.12;97089.53;5091592;28;19964;-57
2023/02/24 10:03:52;;;;;;;;;;;;;;;9.20;70.86;97077.88;5089649;28;19931;-54
2023/02/24 10:07:05;;;;;;;;;;;;;;;9.28;70.77;97073.56;5085193;28;20399;-54
2023/02/24 10:14:04;;;;;;;;;;;;;;;9.40;69.62;97066.34;5039096;28;19938;-54
2023/02/24 10:24:29;;;;;;;;;;;;;;;9.56;68.38;97049.56;5090019;28;20408;-54
2023/02/24 10:31:24;;;;;;;;;;;;;;;9.84;67.48;97009.19;5080225;28;20136;-54
2023/02/24 10:33:57;;;;;;;;;;;;;;;10.00;67.35;97007.50;5071247;28;19928;-54
2023/02/24 10:36:33;;;;;;;;;;;;;;;10.14;66.93;97007.25;5093348;28;19966;-54
2023/02/24 10:39:09;;;;;;;;;;;;;;;10.20;65.51;97014.88;5088257;28;19942;-54
2023/02/24 10:56:00;;;;;;;;;;;;;;;9.78;65.84;96999.66;5009129;28;19960;-55
2023/02/24 10:58:43;;;;;;;;;;;;;;;9.80;64.83;96995.50;5007136;28;20399;-54
2023/02/24 11:06:07;;;;;;;;;;;;;;;9.68;64.63;96973.72;4999972;28;20441;-53
2023/02/24 11:18:21;;;;;;;;;;;;;;;10.08;63.97;96938.03;5022218;28;19935;-54
2023/02/24 11:20:51;;;;;;;;;;;;;;;10.14;64.04;96934.78;5029132;28;19940;-54
2023/02/24 11:23:20;;;;;;;;;;;;;;;10.16;63.75;96929.00;5027114;28;19935;-54
2023/02/24 11:25:49;;;;;;;;;;;;;;;10.17;63.98;96923.25;5029804;28;19993;-54
2023/02/24 11:28:20;;;;;;;;;;;;;;;10.22;63.31;96923.03;5042938;28;20033;-54
2023/02/24 11:30:52;;;;;;;;;;;;;;;10.25;62.82;96918.13;5068427;28;19962;-54
2023/02/24 11:33:24;;;;;;;;;;;;;;;10.30;62.33;96907.84;5060187;28;20297;-54
2023/02/24 11:35:56;;;;;;;;;;;;;;;10.30;62.66;96913.28;5067942;28;19969;-54
2023/02/24 11:38:27;;;;;;;;;;;;;;;10.27;62.07;96913.13;5066793;28;19939;-60
2023/02/24 11:41:01;;;;;;;;;;;;;;;9.92;63.08;96914.19;5064846;28;19955;-55
2023/02/24 11:43:29;;;;;;;;;;;;;;;9.95;62.59;96902.66;5067451;28;19947;-54
2023/02/24 11:46:00;;;;;;;;;;;;;;;9.94;62.19;96901.09;5064430;28;20375;-54
2023/02/24 11:48:30;;;;;;;;;;;;;;;9.90;62.13;96894.72;5069012;28;19943;-54
2023/02/24 11:51:00;;;;;;;;;;;;;;;9.91;61.75;96888.19;5071704;28;19946;-54
2023/02/24 11:53:29;;;;;;;;;;;;;;;9.77;61.88;96884.16;5052331;28;19933;-54
2023/02/24 11:55:59;;;;;;;;;;;;;;;9.83;61.72;96877.41;5067714;28;19938;-55
2023/02/24 11:58:29;;;;;;;;;;;;;;;9.82;62.04;96865.75;5066939;28;20392;-54
2023/02/24 12:01:00;;;;;;;;;;;;;;;9.86;62.26;96872.13;5063677;28;19925;-54
2023/02/24 12:03:30;;;;;;;;;;;;;;;9.93;62.51;96849.88;5067877;28;19978;-54
2023/02/24 12:06:02;;;;;;;;;;;;;;;10.04;61.55;96848.34;5070977;28;19925;-54
2023/02/24 12:08:31;;;;;;;;;;;;;;;10.08;59.78;96845.75;5064838;28;19939;-54
2023/02/24 12:11:01;;;;;;;;;;;;;;;10.13;60.14;96843.63;5066907;28;19943;-54
2023/02/24 12:13:32;;;;;;;;;;;;;;;10.20;59.26;96840.38;5070575;28;19965;-54
2023/02/24 12:16:03;;;;;;;;;;;;;;;10.15;58.81;96835.16;5059213;28;19963;-55
2023/02/24 12:18:59;;;;;;;;;;;;;;;10.07;59.15;96828.69;5064371;28;19941;-54
2023/02/24 12:21:29;;;;;;;;;;;;;;;9.96;59.30;96822.88;5066934;28;19946;-54
2023/02/24 12:23:58;;;;;;;;;;;;;;;10.07;59.18;96823.25;5069415;28;20925;-55
2023/02/24 12:26:27;;;;;;;;;;;;;;;10.15;58.63;96822.38;5071051;28;19939;-53
2023/02/24 12:29:09;;;;;;;;;;;;;;;10.25;58.73;96818.47;5069240;28;19938;-54
2023/02/24 12:31:41;;;;;;;;;;;;;;;10.15;58.64;96811.50;5060949;28;20419;-54
2023/02/24 12:34:10;;;;;;;;;;;;;;;10.10;59.17;96811.72;5059269;28;20423;-54
2023/02/24 12:36:49;;;;;;;;;;;;;;;10.20;58.49;96807.78;5066098;28;20005;-54
2023/02/24 12:39:20;;;;;;;;;;;;;;;10.20;58.40;96802.38;5056852;28;20071;-55
2023/02/24 12:41:53;;;;;;;;;;;;;;;10.28;58.68;96790.66;5064191;28;19990;-53
2023/02/24 12:44:24;;;;;;;;;;;;;;;10.36;58.68;96797.91;5059960;28;19940;-53
2023/02/24 12:46:58;;;;;;;;;;;;;;;10.40;58.42;96787.97;5036728;28;19967;-54
2023/02/24 12:49:30;;;;;;;;;;;;;;;10.46;57.78;96785.81;5032876;28;20032;-54
2023/02/24 12:52:02;;;;;;;;;;;;;;;10.47;57.33;96782.75;5032507;28;19940;-54
2023/02/24 12:54:31;;;;;;;;;;;;;;;10.53;57.01;96775.19;5043480;28;20312;-54
2023/02/24 12:57:05;;;;;;;;;;;;;;;10.46;57.23;96777.69;5044613;28;19959;-54
2023/02/24 12:59:36;;;;;;;;;;;;;;;10.48;56.95;96772.69;5043880;28;19940;-53
2023/02/24 13:02:07;;;;;;;;;;;;;;;10.33;57.45;96771.41;5055265;28;19951;-54
2023/02/24 13:04:40;;;;;;;;;;;;;;;10.38;57.54;96775.84;5057451;28;19939;-53
2023/02/24 13:07:11;;;;;;;;;;;;;;;10.36;58.13;96769.97;5055425;28;20000;-53
2023/02/24 13:09:41;;;;;;;;;;;;;;;10.35;58.66;96768.38;5058093;28;20057;-53
2023/02/24 13:12:14;;;;;;;;;;;;;;;10.36;58.91;96759.91;5060907;28;19940;-54
2023/02/24 13:14:44;;;;;;;;;;;;;;;10.41;58.64;96754.25;5061219;28;19958;-54
2023/02/24 13:17:18;;;;;;;;;;;;;;;10.46;58.32;96743.16;5051785;28;19961;-54
2023/02/24 13:19:51;;;;;;;;;;;;;;;10.49;58.62;96742.50;5057303;28;19939;-54
2023/02/24 13:22:20;;;;;;;;;;;;;;;10.48;59.21;96735.47;5066399;28;19947;-54
2023/02/24 13:24:56;;;;;;;;;;;;;;;10.38;59.48;96735.91;5065221;28;19935;-54
2023/02/24 13:27:24;;;;;;;;;;;;;;;10.29;60.32;96718.16;5071679;28;19929;-53
2023/02/24 13:29:54;;;;;;;;;;;;;;;10.28;60.68;96714.66;5059289;28;19940;-53
2023/02/24 13:32:27;;;;;;;;;;;;;;;10.38;59.77;96708.75;5053294;28;19924;-54
2023/02/24 13:34:57;;;;;;;;;;;;;;;10.40;59.38;96706.50;5063412;28;19924;-53
2023/02/24 13:37:26;;;;;;;;;;;;;;;10.32;59.90;96693.03;5110812;28;19936;-53
2023/02/24 13:39:55;;;;;;;;;;;;;;;10.28;60.05;96692.94;5099070;28;19964;-53
2023/02/24 13:42:24;;;;;;;;;;;;;;;10.36;59.43;96683.88;5109831;28;19938;-53
2023/02/24 13:44:53;;;;;;;;;;;;;;;10.22;58.56;96686.09;5098124;28;20322;-53
2023/02/24 13:47:40;;;;;;;;;;;;;;;10.11;58.14;96687.69;5090448;28;19935;-53
2023/02/24 13:50:18;;;;;;;;;;;;;;;9.94;58.60;96667.75;5104328;28;19934;-54
2023/02/24 13:55:55;;;;;;;;;;;;;;;10.07;58.85;96665.09;5101859;28;19931;-54
2023/02/24 13:58:28;;;;;;;;;;;;;;;10.03;58.49;96666.88;5107924;28;19938;-55
2023/02/24 14:01:00;;;;;;;;;;;;;;;10.02;58.66;96660.66;5097089;28;19958;-54
2023/02/24 14:03:30;;;;;;;;;;;;;;;10.07;58.17;96659.66;5077017;28;19958;-53
2023/02/24 14:05:58;;;;;;;;;;;;;;;10.14;58.63;96659.88;5084978;28;19928;-54
2023/02/24 14:08:29;;;;;;;;;;;;;;;10.16;58.77;96652.19;5089633;28;19941;-54
2023/02/24 14:10:58;;;;;;;;;;;;;;;10.27;58.36;96649.84;5088787;28;19934;-54
2023/02/24 14:13:28;;;;;;;;;;;;;;;10.23;58.28;96649.72;5090934;28;19958;-54
2023/02/24 14:15:57;;;;;;;;;;;;;;;10.33;57.84;96641.09;5086872;28;19950;-54
2023/02/24 14:18:26;;;;;;;;;;;;;;;10.35;57.69;96646.22;5104838;28;20425;-53
2023/02/24 14:20:56;;;;;;;;;;;;;;;10.20;57.74;96647.66;5107080;28;21529;-53
2023/02/24 14:23:25;;;;;;;;;;;;;;;10.15;58.08;96639.75;5106264;28;19942;-53
2023/02/24 14:25:57;;;;;;;;;;;;;;;10.20;58.03;96636.81;5109719;28;19991;-55
2023/02/24 14:28:26;;;;;;;;;;;;;;;10.16;58.44;96635.88;5103551;28;19934;-54
2023/02/24 14:30:56;;;;;;;;;;;;;;;10.12;58.39;96637.69;5102602;28;19971;-54
2023/02/24 14:33:28;;;;;;;;;;;;;;;10.04;58.91;96638.59;5110549;28;20420;-54